sensor_id;sensor_type;location;lat;lon;timestamp;P1;durP1;ratioP1;P2;durP2;ratioP2
2061;SDS011;11070;51.336;12.340;2023-02-28T00:00:49;4.60;;;3.93;;
2061;SDS011;11070;51.336;12.340;2023-02-28T00:03:15;4.40;;;4.00;;
2061;SDS011;11070;51.336;12.340;2023-02-28T00:05:41;5.37;;;3.87;;
2061;SDS011;11070;51.336;12.340;2023-02-28T00:08:07;5.33;;;4.80;;
2061;SDS011;11070;51.336;12.340;2023-02-28T00:10:33;4.50;;;4.10;;
2061;SDS011;11070;51.336;12.340;2023-02-28T00:13:03;7.45;;;4.60;;
2061;SDS011;11070;51.336;12.340;2023-02-28T00:15:30;5.07;;;4.30;;
2061;SDS011;11070;51.336;12.340;2023-02-28T00:17:56;7.75;;;5.45;;
2061;SDS011;11070;51.336;12.340;2023-02-28T00:20:22;6.70;;;5.10;;
2061;SDS011;11070;51.336;12.340;2023-02-28T00:22:50;5.47;;;4.63;;
2061;SDS011;11070;51.336;12.340;2023-02-28T00:25:18;5.13;;;4.35;;
2061;SDS011;11070;51.336;12.340;2023-02-28T00:27:45;4.90;;;4.40;;
2061;SDS011;11070;51.336;12.340;2023-02-28T00:30:13;6.60;;;4.80;;
2061;SDS011;11070;51.336;12.340;2023-02-28T00:32:40;5.95;;;4.57;;
2061;SDS011;11070;51.336;12.340;2023-02-28T00:35:06;5.87;;;4.50;;
2061;SDS011;11070;51.336;12.340;2023-02-28T00:37:32;7.88;;;5.15;;
2061;SDS011;11070;51.336;12.340;2023-02-28T00:39:58;7.57;;;5.00;;
2061;SDS011;11070;51.336;12.340;2023-02-28T00:42:24;5.73;;;4.67;;
2061;SDS011;11070;51.336;12.340;2023-02-28T00:44:50;6.83;;;4.93;;
2061;SDS011;11070;51.336;12.340;2023-02-28T00:47:16;6.70;;;5.20;;
2061;SDS011;11070;51.336;12.340;2023-02-28T00:49:41;5.97;;;4.80;;
2061;SDS011;11070;51.336;12.340;2023-02-28T00:52:07;6.13;;;4.80;;
2061;SDS011;11070;51.336;12.340;2023-02-28T00:54:33;8.53;;;5.47;;
2061;SDS011;11070;51.336;12.340;2023-02-28T00:56:59;5.73;;;4.83;;
2061;SDS011;11070;51.336;12.340;2023-02-28T00:59:25;6.10;;;5.07;;
2061;SDS011;11070;51.336;12.340;2023-02-28T01:01:50;7.07;;;4.80;;
2061;SDS011;11070;51.336;12.340;2023-02-28T01:04:16;5.32;;;4.63;;
2061;SDS011;11070;51.336;12.340;2023-02-28T01:06:42;5.80;;;5.10;;
2061;SDS011;11070;51.336;12.340;2023-02-28T01:09:08;6.07;;;4.70;;
2061;SDS011;11070;51.336;12.340;2023-02-28T01:11:34;6.82;;;4.85;;
2061;SDS011;11070;51.336;12.340;2023-02-28T01:14:00;5.53;;;4.80;;
2061;SDS011;11070;51.336;12.340;2023-02-28T01:16:27;6.65;;;4.82;;
2061;SDS011;11070;51.336;12.340;2023-02-28T01:18:53;5.93;;;5.15;;
2061;SDS011;11070;51.336;12.340;2023-02-28T01:21:19;5.63;;;5.13;;
2061;SDS011;11070;51.336;12.340;2023-02-28T01:23:46;6.43;;;5.20;;
2061;SDS011;11070;51.336;12.340;2023-02-28T01:26:13;5.40;;;4.75;;
2061;SDS011;11070;51.336;12.340;2023-02-28T01:28:40;6.93;;;5.20;;
2061;SDS011;11070;51.336;12.340;2023-02-28T01:31:07;6.65;;;4.97;;
2061;SDS011;11070;51.336;12.340;2023-02-28T01:33:34;6.05;;;5.45;;
2061;SDS011;11070;51.336;12.340;2023-02-28T01:36:01;8.63;;;5.50;;
2061;SDS011;11070;51.336;12.340;2023-02-28T01:38:28;8.00;;;5.32;;
2061;SDS011;11070;51.336;12.340;2023-02-28T01:40:54;9.53;;;5.60;;
2061;SDS011;11070;51.336;12.340;2023-02-28T01:43:24;7.20;;;5.83;;
2061;SDS011;11070;51.336;12.340;2023-02-28T01:45:52;6.03;;;5.03;;
2061;SDS011;11070;51.336;12.340;2023-02-28T01:48:21;6.47;;;5.30;;
2061;SDS011;11070;51.336;12.340;2023-02-28T01:50:51;7.43;;;5.75;;
2061;SDS011;11070;51.336;12.340;2023-02-28T01:53:19;5.97;;;5.05;;
2061;SDS011;11070;51.336;12.340;2023-02-28T01:55:51;7.07;;;5.88;;
2061;SDS011;11070;51.336;12.340;2023-02-28T01:58:18;8.00;;;5.72;;
2061;SDS011;11070;51.336;12.340;2023-02-28T02:00:46;6.40;;;5.05;;
2061;SDS011;11070;51.336;12.340;2023-02-28T02:03:13;6.23;;;5.30;;
2061;SDS011;11070;51.336;12.340;2023-02-28T02:05:43;7.15;;;5.10;;
2061;SDS011;11070;51.336;12.340;2023-02-28T02:08:13;8.45;;;5.30;;
2061;SDS011;11070;51.336;12.340;2023-02-28T02:10:44;8.27;;;5.53;;
2061;SDS011;11070;51.336;12.340;2023-02-28T02:22:12;12.60;;;5.05;;
2061;SDS011;11070;51.336;12.340;2023-02-28T02:36:33;6.07;;;5.32;;
2061;SDS011;11070;51.336;12.340;2023-02-28T02:46:55;6.35;;;5.13;;
2061;SDS011;11070;51.336;12.340;2023-02-28T02:49:27;5.03;;;4.55;;
2061;SDS011;11070;51.336;12.340;2023-02-28T02:51:56;5.60;;;4.70;;
2061;SDS011;11070;51.336;12.340;2023-02-28T02:54:28;6.30;;;4.85;;
2061;SDS011;11070;51.336;12.340;2023-02-28T02:56:59;6.97;;;5.00;;
2061;SDS011;11070;51.336;12.340;2023-02-28T02:59:29;6.90;;;4.65;;
2061;SDS011;11070;51.336;12.340;2023-02-28T03:01:57;6.15;;;5.50;;
2061;SDS011;11070;51.336;12.340;2023-02-28T03:04:30;7.03;;;5.22;;
2061;SDS011;11070;51.336;12.340;2023-02-28T03:06:59;5.93;;;5.20;;
2061;SDS011;11070;51.336;12.340;2023-02-28T03:09:25;7.27;;;4.97;;
2061;SDS011;11070;51.336;12.340;2023-02-28T03:11:52;7.28;;;4.90;;
2061;SDS011;11070;51.336;12.340;2023-02-28T03:25:50;7.55;;;4.88;;
2061;SDS011;11070;51.336;12.340;2023-02-28T03:34:08;6.45;;;4.95;;
2061;SDS011;11070;51.336;12.340;2023-02-28T03:36:39;7.13;;;5.28;;
2061;SDS011;11070;51.336;12.340;2023-02-28T03:39:12;6.95;;;5.10;;
2061;SDS011;11070;51.336;12.340;2023-02-28T03:41:43;7.75;;;5.60;;
2061;SDS011;11070;51.336;12.340;2023-02-28T03:44:13;7.82;;;5.20;;
2061;SDS011;11070;51.336;12.340;2023-02-28T03:46:58;5.93;;;5.18;;
2061;SDS011;11070;51.336;12.340;2023-02-28T03:49:31;8.10;;;5.50;;
2061;SDS011;11070;51.336;12.340;2023-02-28T03:52:05;8.77;;;5.03;;
2061;SDS011;11070;51.336;12.340;2023-02-28T03:54:33;5.63;;;4.78;;
2061;SDS011;11070;51.336;12.340;2023-02-28T04:00:57;5.80;;;5.18;;
2061;SDS011;11070;51.336;12.340;2023-02-28T04:02:55;10.10;;;5.22;;
2061;SDS011;11070;51.336;12.340;2023-02-28T04:05:21;7.00;;;5.23;;
2061;SDS011;11070;51.336;12.340;2023-02-28T04:07:47;7.10;;;5.47;;
2061;SDS011;11070;51.336;12.340;2023-02-28T04:10:14;7.63;;;5.40;;
2061;SDS011;11070;51.336;12.340;2023-02-28T04:12:41;8.80;;;5.50;;
2061;SDS011;11070;51.336;12.340;2023-02-28T04:15:07;6.30;;;5.43;;
2061;SDS011;11070;51.336;12.340;2023-02-28T04:17:33;7.80;;;5.57;;
2061;SDS011;11070;51.336;12.340;2023-02-28T04:19:58;7.97;;;5.70;;
2061;SDS011;11070;51.336;12.340;2023-02-28T04:22:24;7.60;;;5.50;;
2061;SDS011;11070;51.336;12.340;2023-02-28T04:24:53;8.35;;;5.82;;
2061;SDS011;11070;51.336;12.340;2023-02-28T04:27:19;8.70;;;5.70;;
2061;SDS011;11070;51.336;12.340;2023-02-28T04:29:45;6.82;;;5.53;;
2061;SDS011;11070;51.336;12.340;2023-02-28T04:32:11;7.90;;;5.60;;
2061;SDS011;11070;51.336;12.340;2023-02-28T04:34:37;9.40;;;5.70;;
2061;SDS011;11070;51.336;12.340;2023-02-28T04:37:03;7.40;;;5.20;;
2061;SDS011;11070;51.336;12.340;2023-02-28T04:39:29;7.72;;;5.95;;
2061;SDS011;11070;51.336;12.340;2023-02-28T04:41:54;8.67;;;5.60;;
2061;SDS011;11070;51.336;12.340;2023-02-28T04:44:20;6.50;;;5.37;;
2061;SDS011;11070;51.336;12.340;2023-02-28T04:46:47;6.55;;;5.45;;
2061;SDS011;11070;51.336;12.340;2023-02-28T04:49:14;7.72;;;5.80;;
2061;SDS011;11070;51.336;12.340;2023-02-28T04:51:40;7.05;;;5.43;;
2061;SDS011;11070;51.336;12.340;2023-02-28T04:54:06;7.25;;;5.50;;
2061;SDS011;11070;51.336;12.340;2023-02-28T04:56:32;8.70;;;5.43;;
2061;SDS011;11070;51.336;12.340;2023-02-28T04:58:58;7.77;;;5.37;;
2061;SDS011;11070;51.336;12.340;2023-02-28T05:01:31;7.40;;;5.57;;
2061;SDS011;11070;51.336;12.340;2023-02-28T05:03:58;9.88;;;6.13;;
2061;SDS011;11070;51.336;12.340;2023-02-28T05:06:27;8.50;;;5.90;;
2061;SDS011;11070;51.336;12.340;2023-02-28T05:08:55;6.30;;;5.68;;
2061;SDS011;11070;51.336;12.340;2023-02-28T05:11:31;7.10;;;5.40;;
2061;SDS011;11070;51.336;12.340;2023-02-28T05:14:03;7.22;;;5.53;;
2061;SDS011;11070;51.336;12.340;2023-02-28T05:16:35;5.05;;;4.63;;
2061;SDS011;11070;51.336;12.340;2023-02-28T05:19:01;5.90;;;5.10;;
2061;SDS011;11070;51.336;12.340;2023-02-28T05:21:31;8.35;;;5.93;;
2061;SDS011;11070;51.336;12.340;2023-02-28T05:24:00;8.70;;;5.30;;
2061;SDS011;11070;51.336;12.340;2023-02-28T05:26:29;6.30;;;5.45;;
2061;SDS011;11070;51.336;12.340;2023-02-28T05:28:55;8.32;;;5.85;;
2061;SDS011;11070;51.336;12.340;2023-02-28T05:31:21;6.43;;;5.50;;
2061;SDS011;11070;51.336;12.340;2023-02-28T05:33:47;7.35;;;5.72;;
2061;SDS011;11070;51.336;12.340;2023-02-28T05:36:13;8.20;;;6.50;;
2061;SDS011;11070;51.336;12.340;2023-02-28T05:38:39;7.93;;;5.43;;
2061;SDS011;11070;51.336;12.340;2023-02-28T05:41:06;12.40;;;6.50;;
2061;SDS011;11070;51.336;12.340;2023-02-28T05:43:32;7.30;;;5.57;;
2061;SDS011;11070;51.336;12.340;2023-02-28T05:45:59;11.02;;;5.93;;
2061;SDS011;11070;51.336;12.340;2023-02-28T05:48:26;8.18;;;6.32;;
2061;SDS011;11070;51.336;12.340;2023-02-28T05:50:52;8.10;;;5.80;;
2061;SDS011;11070;51.336;12.340;2023-02-28T05:53:18;7.20;;;5.77;;
2061;SDS011;11070;51.336;12.340;2023-02-28T05:55:43;7.93;;;5.77;;
2061;SDS011;11070;51.336;12.340;2023-02-28T05:58:09;7.37;;;5.60;;
2061;SDS011;11070;51.336;12.340;2023-02-28T06:00:34;9.67;;;6.23;;
2061;SDS011;11070;51.336;12.340;2023-02-28T06:03:00;6.87;;;5.90;;
2061;SDS011;11070;51.336;12.340;2023-02-28T06:05:27;8.82;;;6.57;;
2061;SDS011;11070;51.336;12.340;2023-02-28T06:07:52;11.82;;;6.88;;
2061;SDS011;11070;51.336;12.340;2023-02-28T06:10:18;8.93;;;6.50;;
2061;SDS011;11070;51.336;12.340;2023-02-28T06:12:44;7.65;;;6.85;;
2061;SDS011;11070;51.336;12.340;2023-02-28T06:15:13;7.88;;;6.45;;
2061;SDS011;11070;51.336;12.340;2023-02-28T06:17:40;7.80;;;5.90;;
2061;SDS011;11070;51.336;12.340;2023-02-28T06:20:07;7.63;;;6.40;;
2061;SDS011;11070;51.336;12.340;2023-02-28T06:22:34;10.60;;;6.93;;
2061;SDS011;11070;51.336;12.340;2023-02-28T06:25:01;8.13;;;6.68;;
2061;SDS011;11070;51.336;12.340;2023-02-28T06:27:26;7.35;;;5.88;;
2061;SDS011;11070;51.336;12.340;2023-02-28T06:29:55;7.50;;;5.93;;
2061;SDS011;11070;51.336;12.340;2023-02-28T06:32:21;9.25;;;6.40;;
2061;SDS011;11070;51.336;12.340;2023-02-28T06:34:47;8.73;;;5.78;;
2061;SDS011;11070;51.336;12.340;2023-02-28T06:37:13;10.27;;;5.97;;
2061;SDS011;11070;51.336;12.340;2023-02-28T06:39:38;6.90;;;5.43;;
2061;SDS011;11070;51.336;12.340;2023-02-28T06:42:04;10.70;;;6.35;;
2061;SDS011;11070;51.336;12.340;2023-02-28T06:44:30;10.00;;;6.30;;
2061;SDS011;11070;51.336;12.340;2023-02-28T06:47:00;10.70;;;6.32;;
2061;SDS011;11070;51.336;12.340;2023-02-28T06:49:30;11.13;;;6.43;;
2061;SDS011;11070;51.336;12.340;2023-02-28T06:51:57;9.25;;;6.40;;
2061;SDS011;11070;51.336;12.340;2023-02-28T06:54:22;7.73;;;6.17;;
2061;SDS011;11070;51.336;12.340;2023-02-28T06:56:48;15.10;;;6.20;;
2061;SDS011;11070;51.336;12.340;2023-02-28T06:59:14;8.07;;;6.40;;
2061;SDS011;11070;51.336;12.340;2023-02-28T07:01:40;8.50;;;6.47;;
2061;SDS011;11070;51.336;12.340;2023-02-28T07:04:06;9.93;;;6.67;;
2061;SDS011;11070;51.336;12.340;2023-02-28T07:06:32;9.63;;;5.80;;
2061;SDS011;11070;51.336;12.340;2023-02-28T07:08:58;8.32;;;6.15;;
2061;SDS011;11070;51.336;12.340;2023-02-28T07:11:25;7.33;;;5.90;;
2061;SDS011;11070;51.336;12.340;2023-02-28T07:13:52;6.00;;;5.40;;
2061;SDS011;11070;51.336;12.340;2023-02-28T07:16:19;7.57;;;6.03;;
2061;SDS011;11070;51.336;12.340;2023-02-28T07:18:45;8.57;;;6.73;;
2061;SDS011;11070;51.336;12.340;2023-02-28T07:21:11;7.20;;;6.20;;
2061;SDS011;11070;51.336;12.340;2023-02-28T07:23:37;9.60;;;6.13;;
2061;SDS011;11070;51.336;12.340;2023-02-28T07:26:04;8.02;;;6.40;;
2061;SDS011;11070;51.336;12.340;2023-02-28T07:28:30;8.38;;;6.05;;
2061;SDS011;11070;51.336;12.340;2023-02-28T07:30:56;8.40;;;5.90;;
2061;SDS011;11070;51.336;12.340;2023-02-28T07:33:27;8.35;;;6.60;;
2061;SDS011;11070;51.336;12.340;2023-02-28T07:35:59;8.17;;;7.00;;
2061;SDS011;11070;51.336;12.340;2023-02-28T07:38:26;7.68;;;6.88;;
2061;SDS011;11070;51.336;12.340;2023-02-28T07:40:51;10.43;;;6.80;;
2061;SDS011;11070;51.336;12.340;2023-02-28T07:43:17;8.10;;;6.83;;
2061;SDS011;11070;51.336;12.340;2023-02-28T07:45:43;10.90;;;6.87;;
2061;SDS011;11070;51.336;12.340;2023-02-28T07:48:08;9.80;;;6.50;;
2061;SDS011;11070;51.336;12.340;2023-02-28T07:50:34;8.70;;;6.38;;
2061;SDS011;11070;51.336;12.340;2023-02-28T07:53:00;8.70;;;7.00;;
2061;SDS011;11070;51.336;12.340;2023-02-28T07:55:26;7.70;;;6.10;;
2061;SDS011;11070;51.336;12.340;2023-02-28T07:57:52;9.40;;;5.97;;
2061;SDS011;11070;51.336;12.340;2023-02-28T08:00:18;8.70;;;7.57;;
2061;SDS011;11070;51.336;12.340;2023-02-28T08:02:43;7.43;;;6.63;;
2061;SDS011;11070;51.336;12.340;2023-02-28T08:05:09;7.60;;;6.13;;
2061;SDS011;11070;51.336;12.340;2023-02-28T08:07:35;7.80;;;6.10;;
2061;SDS011;11070;51.336;12.340;2023-02-28T08:10:01;6.80;;;5.63;;
2061;SDS011;11070;51.336;12.340;2023-02-28T08:12:26;8.40;;;5.93;;
2061;SDS011;11070;51.336;12.340;2023-02-28T08:14:52;7.23;;;6.10;;
2061;SDS011;11070;51.336;12.340;2023-02-28T08:17:17;8.17;;;6.17;;
2061;SDS011;11070;51.336;12.340;2023-02-28T08:19:46;11.10;;;6.88;;
2061;SDS011;11070;51.336;12.340;2023-02-28T08:22:12;7.13;;;5.60;;
2061;SDS011;11070;51.336;12.340;2023-02-28T08:24:38;7.90;;;6.07;;
2061;SDS011;11070;51.336;12.340;2023-02-28T08:27:06;9.07;;;6.13;;
2061;SDS011;11070;51.336;12.340;2023-02-28T08:29:32;7.10;;;5.37;;
2061;SDS011;11070;51.336;12.340;2023-02-28T08:31:57;13.53;;;6.60;;
2061;SDS011;11070;51.336;12.340;2023-02-28T08:34:23;9.33;;;5.63;;
2061;SDS011;11070;51.336;12.340;2023-02-28T08:36:49;12.80;;;5.77;;
2061;SDS011;11070;51.336;12.340;2023-02-28T08:39:15;10.10;;;5.60;;
2061;SDS011;11070;51.336;12.340;2023-02-28T08:41:41;7.47;;;5.27;;
2061;SDS011;11070;51.336;12.340;2023-02-28T08:44:08;6.10;;;5.50;;
2061;SDS011;11070;51.336;12.340;2023-02-28T08:46:34;4.63;;;4.23;;
2061;SDS011;11070;51.336;12.340;2023-02-28T08:49:00;7.50;;;5.67;;
2061;SDS011;11070;51.336;12.340;2023-02-28T08:51:27;6.35;;;5.15;;
2061;SDS011;11070;51.336;12.340;2023-02-28T08:53:54;5.78;;;5.15;;
2061;SDS011;11070;51.336;12.340;2023-02-28T08:56:22;5.22;;;4.72;;
2061;SDS011;11070;51.336;12.340;2023-02-28T08:58:49;5.60;;;4.75;;
2061;SDS011;11070;51.336;12.340;2023-02-28T09:01:16;6.18;;;4.75;;
2061;SDS011;11070;51.336;12.340;2023-02-28T09:04:01;5.75;;;4.60;;
2061;SDS011;11070;51.336;12.340;2023-02-28T09:06:27;5.28;;;4.68;;
2061;SDS011;11070;51.336;12.340;2023-02-28T09:08:55;5.00;;;4.10;;
2061;SDS011;11070;51.336;12.340;2023-02-28T09:11:23;6.25;;;5.28;;
2061;SDS011;11070;51.336;12.340;2023-02-28T09:13:49;6.43;;;5.30;;
2061;SDS011;11070;51.336;12.340;2023-02-28T09:16:15;6.73;;;5.17;;
2061;SDS011;11070;51.336;12.340;2023-02-28T09:18:42;7.63;;;5.07;;
2061;SDS011;11070;51.336;12.340;2023-02-28T09:21:15;7.13;;;5.20;;
2061;SDS011;11070;51.336;12.340;2023-02-28T09:23:42;5.75;;;5.15;;
2061;SDS011;11070;51.336;12.340;2023-02-28T09:26:13;6.30;;;5.68;;
2061;SDS011;11070;51.336;12.340;2023-02-28T09:28:43;5.88;;;5.28;;
2061;SDS011;11070;51.336;12.340;2023-02-28T09:31:19;10.38;;;5.78;;
2061;SDS011;11070;51.336;12.340;2023-02-28T09:33:48;7.43;;;6.35;;
2061;SDS011;11070;51.336;12.340;2023-02-28T09:36:18;6.85;;;6.05;;
2061;SDS011;11070;51.336;12.340;2023-02-28T09:38:44;7.65;;;5.60;;
2061;SDS011;11070;51.336;12.340;2023-02-28T09:41:15;11.15;;;5.68;;
2061;SDS011;11070;51.336;12.340;2023-02-28T09:43:47;9.90;;;6.15;;
2061;SDS011;11070;51.336;12.340;2023-02-28T09:49:00;6.00;;;5.40;;
2061;SDS011;11070;51.336;12.340;2023-02-28T09:54:00;5.70;;;5.18;;
2061;SDS011;11070;51.336;12.340;2023-02-28T10:07:18;6.03;;;5.43;;
2061;SDS011;11070;51.336;12.340;2023-02-28T10:09:56;8.02;;;5.47;;
2061;SDS011;11070;51.336;12.340;2023-02-28T10:12:24;8.68;;;6.47;;
2061;SDS011;11070;51.336;12.340;2023-02-28T10:14:53;6.20;;;5.60;;
2061;SDS011;11070;51.336;12.340;2023-02-28T10:17:21;6.63;;;5.90;;
2061;SDS011;11070;51.336;12.340;2023-02-28T10:20:05;6.32;;;5.65;;
2061;SDS011;11070;51.336;12.340;2023-02-28T10:25:25;6.20;;;5.40;;
2061;SDS011;11070;51.336;12.340;2023-02-28T10:27:53;11.05;;;6.18;;
2061;SDS011;11070;51.336;12.340;2023-02-28T10:30:43;6.53;;;5.93;;
2061;SDS011;11070;51.336;12.340;2023-02-28T10:33:31;6.10;;;5.55;;
2061;SDS011;11070;51.336;12.340;2023-02-28T10:35:59;6.47;;;5.78;;
2061;SDS011;11070;51.336;12.340;2023-02-28T10:38:36;6.00;;;5.40;;
2061;SDS011;11070;51.336;12.340;2023-02-28T10:43:33;6.28;;;5.40;;
2061;SDS011;11070;51.336;12.340;2023-02-28T10:48:57;7.20;;;6.20;;
2061;SDS011;11070;51.336;12.340;2023-02-28T10:51:37;7.07;;;6.40;;
2061;SDS011;11070;51.336;12.340;2023-02-28T10:54:05;6.45;;;5.93;;
2061;SDS011;11070;51.336;12.340;2023-02-28T10:56:31;8.00;;;6.37;;
2061;SDS011;11070;51.336;12.340;2023-02-28T11:01:33;6.50;;;5.90;;
2061;SDS011;11070;51.336;12.340;2023-02-28T11:04:02;7.03;;;6.32;;
2061;SDS011;11070;51.336;12.340;2023-02-28T11:08:58;7.18;;;6.47;;
2061;SDS011;11070;51.336;12.340;2023-02-28T11:11:29;7.75;;;7.00;;
2061;SDS011;11070;51.336;12.340;2023-02-28T11:14:14;8.25;;;6.53;;
2061;SDS011;11070;51.336;12.340;2023-02-28T11:17:11;6.93;;;6.32;;
2061;SDS011;11070;51.336;12.340;2023-02-28T11:19:44;9.80;;;6.25;;
2061;SDS011;11070;51.336;12.340;2023-02-28T11:22:15;6.15;;;5.65;;
2061;SDS011;11070;51.336;12.340;2023-02-28T11:24:49;7.13;;;6.43;;
2061;SDS011;11070;51.336;12.340;2023-02-28T11:29:55;7.35;;;6.65;;
2061;SDS011;11070;51.336;12.340;2023-02-28T11:32:24;6.70;;;6.10;;
2061;SDS011;11070;51.336;12.340;2023-02-28T11:37:58;7.32;;;6.45;;
2061;SDS011;11070;51.336;12.340;2023-02-28T11:40:28;7.60;;;6.80;;
2061;SDS011;11070;51.336;12.340;2023-02-28T11:43:13;8.07;;;7.20;;
2061;SDS011;11070;51.336;12.340;2023-02-28T11:45:54;7.40;;;6.47;;
2061;SDS011;11070;51.336;12.340;2023-02-28T11:56:37;7.25;;;6.55;;
2061;SDS011;11070;51.336;12.340;2023-02-28T12:02:20;11.88;;;6.78;;
2061;SDS011;11070;51.336;12.340;2023-02-28T12:10:24;8.13;;;7.43;;
2061;SDS011;11070;51.336;12.340;2023-02-28T12:13:21;8.35;;;7.55;;
2061;SDS011;11070;51.336;12.340;2023-02-28T12:16:00;8.30;;;7.40;;
2061;SDS011;11070;51.336;12.340;2023-02-28T12:27:19;9.18;;;8.15;;
2061;SDS011;11070;51.336;12.340;2023-02-28T12:29:52;9.17;;;8.37;;
2061;SDS011;11070;51.336;12.340;2023-02-28T12:35:11;8.88;;;7.88;;
2061;SDS011;11070;51.336;12.340;2023-02-28T12:38:01;8.77;;;8.05;;
2061;SDS011;11070;51.336;12.340;2023-02-28T12:40:44;9.30;;;8.40;;
2061;SDS011;11070;51.336;12.340;2023-02-28T12:43:37;8.52;;;7.68;;
2061;SDS011;11070;51.336;12.340;2023-02-28T12:46:09;9.65;;;8.18;;
2061;SDS011;11070;51.336;12.340;2023-02-28T12:48:59;9.82;;;8.82;;
2061;SDS011;11070;51.336;12.340;2023-02-28T12:51:30;9.98;;;8.98;;
2061;SDS011;11070;51.336;12.340;2023-02-28T13:02:09;10.57;;;9.47;;
2061;SDS011;11070;51.336;12.340;2023-02-28T13:10:22;11.10;;;10.00;;
2061;SDS011;11070;51.336;12.340;2023-02-28T13:12:52;10.45;;;9.45;;
2061;SDS011;11070;51.336;12.340;2023-02-28T13:15:21;10.20;;;9.20;;
2061;SDS011;11070;51.336;12.340;2023-02-28T13:17:53;11.17;;;9.97;;
2061;SDS011;11070;51.336;12.340;2023-02-28T13:20:25;11.75;;;10.55;;
2061;SDS011;11070;51.336;12.340;2023-02-28T13:22:54;10.40;;;9.30;;
2061;SDS011;11070;51.336;12.340;2023-02-28T13:27:46;12.10;;;9.87;;
2061;SDS011;11070;51.336;12.340;2023-02-28T13:33:23;10.97;;;9.87;;
2061;SDS011;11070;51.336;12.340;2023-02-28T13:36:09;11.55;;;10.30;;
2061;SDS011;11070;51.336;12.340;2023-02-28T13:38:37;10.60;;;9.52;;
2061;SDS011;11070;51.336;12.340;2023-02-28T13:49:19;10.00;;;8.88;;
2061;SDS011;11070;51.336;12.340;2023-02-28T13:52:33;10.48;;;9.57;;
2061;SDS011;11070;51.336;12.340;2023-02-28T13:57:53;11.02;;;9.50;;
2061;SDS011;11070;51.336;12.340;2023-02-28T14:08:55;10.65;;;9.65;;
2061;SDS011;11070;51.336;12.340;2023-02-28T14:11:32;11.55;;;9.38;;
2061;SDS011;11070;51.336;12.340;2023-02-28T14:14:00;11.60;;;9.90;;
2061;SDS011;11070;51.336;12.340;2023-02-28T14:16:27;11.30;;;8.95;;
2061;SDS011;11070;51.336;12.340;2023-02-28T14:21:52;15.77;;;10.05;;
2061;SDS011;11070;51.336;12.340;2023-02-28T14:33:00;11.35;;;9.50;;
2061;SDS011;11070;51.336;12.340;2023-02-28T14:35:39;10.30;;;9.30;;
2061;SDS011;11070;51.336;12.340;2023-02-28T14:38:18;11.55;;;10.35;;
2061;SDS011;11070;51.336;12.340;2023-02-28T14:40:51;10.95;;;9.80;;
2061;SDS011;11070;51.336;12.340;2023-02-28T14:43:21;11.50;;;10.30;;
2061;SDS011;11070;51.336;12.340;2023-02-28T14:45:51;11.02;;;9.63;;
2061;SDS011;11070;51.336;12.340;2023-02-28T14:48:20;13.48;;;9.93;;
2061;SDS011;11070;51.336;12.340;2023-02-28T14:50:58;11.15;;;9.85;;
2061;SDS011;11070;51.336;12.340;2023-02-28T14:53:29;11.65;;;10.10;;
2061;SDS011;11070;51.336;12.340;2023-02-28T14:56:00;10.95;;;9.85;;
2061;SDS011;11070;51.336;12.340;2023-02-28T14:58:30;10.87;;;9.77;;
2061;SDS011;11070;51.336;12.340;2023-02-28T15:00:59;10.75;;;9.65;;
2061;SDS011;11070;51.336;12.340;2023-02-28T15:05:56;12.73;;;10.13;;
2061;SDS011;11070;51.336;12.340;2023-02-28T15:08:23;11.52;;;10.32;;
2061;SDS011;11070;51.336;12.340;2023-02-28T15:10:55;14.85;;;10.90;;
2061;SDS011;11070;51.336;12.340;2023-02-28T15:16:22;10.65;;;9.55;;
2061;SDS011;11070;51.336;12.340;2023-02-28T15:21:39;12.10;;;10.80;;
2061;SDS011;11070;51.336;12.340;2023-02-28T15:24:12;11.55;;;10.40;;
2061;SDS011;11070;51.336;12.340;2023-02-28T15:26:40;11.38;;;10.20;;
2061;SDS011;11070;51.336;12.340;2023-02-28T15:29:12;10.80;;;9.20;;
2061;SDS011;11070;51.336;12.340;2023-02-28T15:32:06;12.13;;;10.82;;
2061;SDS011;11070;51.336;12.340;2023-02-28T15:34:42;14.07;;;11.13;;
2061;SDS011;11070;51.336;12.340;2023-02-28T15:42:36;12.27;;;10.45;;
2061;SDS011;11070;51.336;12.340;2023-02-28T15:45:02;13.63;;;9.73;;
2061;SDS011;11070;51.336;12.340;2023-02-28T15:47:29;14.02;;;10.20;;
2061;SDS011;11070;51.336;12.340;2023-02-28T15:49:59;12.80;;;10.65;;
2061;SDS011;11070;51.336;12.340;2023-02-28T15:52:39;12.23;;;10.73;;
2061;SDS011;11070;51.336;12.340;2023-02-28T15:55:11;12.30;;;10.75;;
2061;SDS011;11070;51.336;12.340;2023-02-28T15:57:45;13.75;;;10.90;;
2061;SDS011;11070;51.336;12.340;2023-02-28T16:00:22;13.65;;;10.30;;
2061;SDS011;11070;51.336;12.340;2023-02-28T16:02:49;12.75;;;10.77;;
2061;SDS011;11070;51.336;12.340;2023-02-28T16:05:20;13.40;;;10.65;;
2061;SDS011;11070;51.336;12.340;2023-02-28T16:08:00;14.25;;;11.55;;
2061;SDS011;11070;51.336;12.340;2023-02-28T16:10:36;13.05;;;10.77;;
2061;SDS011;11070;51.336;12.340;2023-02-28T16:13:02;14.90;;;11.90;;
2061;SDS011;11070;51.336;12.340;2023-02-28T16:15:28;13.90;;;11.60;;
2061;SDS011;11070;51.336;12.340;2023-02-28T16:17:58;15.63;;;11.30;;
2061;SDS011;11070;51.336;12.340;2023-02-28T16:20:28;16.77;;;11.93;;
2061;SDS011;11070;51.336;12.340;2023-02-28T16:22:54;13.85;;;11.43;;
2061;SDS011;11070;51.336;12.340;2023-02-28T16:25:26;13.02;;;11.02;;
2061;SDS011;11070;51.336;12.340;2023-02-28T16:28:05;14.65;;;11.13;;
2061;SDS011;11070;51.336;12.340;2023-02-28T16:30:56;14.77;;;10.98;;
2061;SDS011;11070;51.336;12.340;2023-02-28T16:33:22;14.50;;;11.70;;
2061;SDS011;11070;51.336;12.340;2023-02-28T16:35:47;14.70;;;11.40;;
2061;SDS011;11070;51.336;12.340;2023-02-28T16:38:14;17.50;;;12.40;;
2061;SDS011;11070;51.336;12.340;2023-02-28T16:40:39;18.00;;;12.57;;
2061;SDS011;11070;51.336;12.340;2023-02-28T16:43:07;14.50;;;12.20;;
2061;SDS011;11070;51.336;12.340;2023-02-28T16:45:38;16.05;;;12.52;;
2061;SDS011;11070;51.336;12.340;2023-02-28T16:48:04;15.23;;;12.13;;
2061;SDS011;11070;51.336;12.340;2023-02-28T16:50:29;13.93;;;11.50;;
2061;SDS011;11070;51.336;12.340;2023-02-28T16:52:57;17.08;;;12.55;;
2061;SDS011;11070;51.336;12.340;2023-02-28T16:55:24;15.90;;;12.70;;
2061;SDS011;11070;51.336;12.340;2023-02-28T16:58:00;16.40;;;12.18;;
2061;SDS011;11070;51.336;12.340;2023-02-28T17:00:27;17.77;;;12.00;;
2061;SDS011;11070;51.336;12.340;2023-02-28T17:02:54;16.02;;;12.02;;
2061;SDS011;11070;51.336;12.340;2023-02-28T17:05:21;20.20;;;12.82;;
2061;SDS011;11070;51.336;12.340;2023-02-28T17:07:47;17.25;;;13.27;;
2061;SDS011;11070;51.336;12.340;2023-02-28T17:10:21;17.75;;;12.77;;
2061;SDS011;11070;51.336;12.340;2023-02-28T17:12:48;18.83;;;12.73;;
2061;SDS011;11070;51.336;12.340;2023-02-28T17:15:15;18.40;;;13.35;;
2061;SDS011;11070;51.336;12.340;2023-02-28T17:17:42;16.38;;;12.27;;
2061;SDS011;11070;51.336;12.340;2023-02-28T17:20:11;16.70;;;12.50;;
2061;SDS011;11070;51.336;12.340;2023-02-28T17:22:42;17.90;;;13.60;;
2061;SDS011;11070;51.336;12.340;2023-02-28T17:25:08;19.00;;;13.47;;
2061;SDS011;11070;51.336;12.340;2023-02-28T17:27:36;19.88;;;13.25;;
2061;SDS011;11070;51.336;12.340;2023-02-28T17:30:03;17.10;;;12.55;;
2061;SDS011;11070;51.336;12.340;2023-02-28T17:32:38;18.55;;;13.77;;
2061;SDS011;11070;51.336;12.340;2023-02-28T17:35:04;21.43;;;13.80;;
2061;SDS011;11070;51.336;12.340;2023-02-28T17:37:30;18.42;;;12.98;;
2061;SDS011;11070;51.336;12.340;2023-02-28T17:39:56;20.23;;;13.03;;
2061;SDS011;11070;51.336;12.340;2023-02-28T17:42:21;19.80;;;13.20;;
2061;SDS011;11070;51.336;12.340;2023-02-28T17:44:47;17.50;;;13.00;;
2061;SDS011;11070;51.336;12.340;2023-02-28T17:47:13;22.23;;;14.50;;
2061;SDS011;11070;51.336;12.340;2023-02-28T17:49:38;22.77;;;18.30;;